sensor_id;sensor_type;location;lat;lon;timestamp;P1;durP1;ratioP1;P2;durP2;ratioP2
22646;SDS011;11490;42.726;23.268;2022-09-03T00:01:31;6.70;;;3.53;;
22646;SDS011;11490;42.726;23.268;2022-09-03T00:04:04;11.13;;;4.30;;
22646;SDS011;11490;42.726;23.268;2022-09-03T00:06:42;6.45;;;3.88;;
22646;SDS011;11490;42.726;23.268;2022-09-03T00:09:14;7.72;;;4.60;;
22646;SDS011;11490;42.726;23.268;2022-09-03T00:11:57;7.45;;;4.78;;
22646;SDS011;11490;42.726;23.268;2022-09-03T00:14:40;5.97;;;3.67;;
22646;SDS011;11490;42.726;23.268;2022-09-03T00:17:13;5.22;;;3.63;;
22646;SDS011;11490;42.726;23.268;2022-09-03T00:19:43;5.10;;;4.15;;
22646;SDS011;11490;42.726;23.268;2022-09-03T00:22:17;4.50;;;3.45;;
22646;SDS011;11490;42.726;23.268;2022-09-03T00:24:47;6.70;;;3.50;;
22646;SDS011;11490;42.726;23.268;2022-09-03T00:27:21;7.15;;;4.20;;
22646;SDS011;11490;42.726;23.268;2022-09-03T00:29:51;6.68;;;3.75;;
22646;SDS011;11490;42.726;23.268;2022-09-03T00:32:26;6.47;;;3.47;;
22646;SDS011;11490;42.726;23.268;2022-09-03T00:35:13;5.38;;;3.42;;
22646;SDS011;11490;42.726;23.268;2022-09-03T00:38:18;8.52;;;3.10;;
22646;SDS011;11490;42.726;23.268;2022-09-03T00:43:21;6.63;;;3.45;;
22646;SDS011;11490;42.726;23.268;2022-09-03T00:45:55;3.78;;;2.92;;
22646;SDS011;11490;42.726;23.268;2022-09-03T00:48:25;5.60;;;3.45;;
22646;SDS011;11490;42.726;23.268;2022-09-03T00:51:09;6.00;;;3.95;;
22646;SDS011;11490;42.726;23.268;2022-09-03T00:56:38;5.75;;;3.40;;
22646;SDS011;11490;42.726;23.268;2022-09-03T00:59:41;6.55;;;3.60;;
22646;SDS011;11490;42.726;23.268;2022-09-03T01:02:20;5.05;;;3.33;;
22646;SDS011;11490;42.726;23.268;2022-09-03T01:13:52;7.68;;;3.80;;
22646;SDS011;11490;42.726;23.268;2022-09-03T01:30:39;6.38;;;4.00;;
22646;SDS011;11490;42.726;23.268;2022-09-03T01:33:25;9.38;;;3.83;;
22646;SDS011;11490;42.726;23.268;2022-09-03T01:41:24;8.15;;;4.75;;
22646;SDS011;11490;42.726;23.268;2022-09-03T01:47:00;7.50;;;3.88;;
22646;SDS011;11490;42.726;23.268;2022-09-03T01:52:28;6.90;;;4.40;;
22646;SDS011;11490;42.726;23.268;2022-09-03T01:58:07;5.00;;;3.47;;
22646;SDS011;11490;42.726;23.268;2022-09-03T02:00:56;6.38;;;4.20;;
22646;SDS011;11490;42.726;23.268;2022-09-03T02:03:37;5.65;;;3.60;;
22646;SDS011;11490;42.726;23.268;2022-09-03T02:06:05;7.28;;;4.32;;
22646;SDS011;11490;42.726;23.268;2022-09-03T02:08:33;7.93;;;4.28;;
22646;SDS011;11490;42.726;23.268;2022-09-03T02:10:58;6.68;;;4.13;;
22646;SDS011;11490;42.726;23.268;2022-09-03T02:13:43;7.72;;;4.50;;
22646;SDS011;11490;42.726;23.268;2022-09-03T02:16:16;9.45;;;4.95;;
22646;SDS011;11490;42.726;23.268;2022-09-03T02:18:47;7.35;;;4.55;;
22646;SDS011;11490;42.726;23.268;2022-09-03T02:21:18;8.15;;;4.55;;
22646;SDS011;11490;42.726;23.268;2022-09-03T02:23:45;7.30;;;3.72;;
22646;SDS011;11490;42.726;23.268;2022-09-03T02:26:12;7.75;;;4.25;;
22646;SDS011;11490;42.726;23.268;2022-09-03T02:28:40;11.25;;;4.28;;
22646;SDS011;11490;42.726;23.268;2022-09-03T02:31:06;7.78;;;4.32;;
22646;SDS011;11490;42.726;23.268;2022-09-03T02:33:34;7.40;;;4.07;;
22646;SDS011;11490;42.726;23.268;2022-09-03T02:36:05;6.63;;;4.50;;
22646;SDS011;11490;42.726;23.268;2022-09-03T02:38:33;7.43;;;3.83;;
22646;SDS011;11490;42.726;23.268;2022-09-03T02:40:58;7.32;;;4.40;;
22646;SDS011;11490;42.726;23.268;2022-09-03T02:43:38;8.38;;;4.35;;
22646;SDS011;11490;42.726;23.268;2022-09-03T02:46:09;9.85;;;4.30;;
22646;SDS011;11490;42.726;23.268;2022-09-03T02:48:40;10.15;;;4.47;;
22646;SDS011;11490;42.726;23.268;2022-09-03T02:51:05;7.53;;;4.25;;
22646;SDS011;11490;42.726;23.268;2022-09-03T02:53:30;8.85;;;4.93;;
22646;SDS011;11490;42.726;23.268;2022-09-03T02:55:57;11.07;;;4.50;;
22646;SDS011;11490;42.726;23.268;2022-09-03T02:58:26;12.52;;;4.47;;
22646;SDS011;11490;42.726;23.268;2022-09-03T03:00:52;7.80;;;4.90;;
22646;SDS011;11490;42.726;23.268;2022-09-03T03:03:18;6.82;;;4.65;;
22646;SDS011;11490;42.726;23.268;2022-09-03T03:05:45;7.15;;;4.90;;
22646;SDS011;11490;42.726;23.268;2022-09-03T03:08:14;8.73;;;4.55;;
22646;SDS011;11490;42.726;23.268;2022-09-03T03:10:41;9.07;;;4.68;;
22646;SDS011;11490;42.726;23.268;2022-09-03T03:13:10;8.18;;;4.45;;
22646;SDS011;11490;42.726;23.268;2022-09-03T03:15:35;7.32;;;4.13;;
22646;SDS011;11490;42.726;23.268;2022-09-03T03:18:01;7.65;;;4.40;;
22646;SDS011;11490;42.726;23.268;2022-09-03T03:20:27;8.07;;;5.00;;
22646;SDS011;11490;42.726;23.268;2022-09-03T03:22:52;7.85;;;4.80;;
22646;SDS011;11490;42.726;23.268;2022-09-03T03:25:18;7.82;;;4.35;;
22646;SDS011;11490;42.726;23.268;2022-09-03T03:27:43;7.22;;;4.43;;
22646;SDS011;11490;42.726;23.268;2022-09-03T03:30:09;6.93;;;3.97;;
22646;SDS011;11490;42.726;23.268;2022-09-03T03:32:35;6.72;;;4.25;;
22646;SDS011;11490;42.726;23.268;2022-09-03T03:35:01;8.70;;;4.50;;
22646;SDS011;11490;42.726;23.268;2022-09-03T03:37:28;8.43;;;4.75;;
22646;SDS011;11490;42.726;23.268;2022-09-03T03:39:53;7.55;;;4.45;;
22646;SDS011;11490;42.726;23.268;2022-09-03T03:42:19;7.72;;;4.43;;
22646;SDS011;11490;42.726;23.268;2022-09-03T03:44:44;8.55;;;4.57;;
22646;SDS011;11490;42.726;23.268;2022-09-03T03:47:09;7.15;;;4.53;;
22646;SDS011;11490;42.726;23.268;2022-09-03T03:49:36;7.00;;;4.18;;
22646;SDS011;11490;42.726;23.268;2022-09-03T03:52:01;6.15;;;4.78;;
22646;SDS011;11490;42.726;23.268;2022-09-03T03:54:28;7.03;;;4.45;;
22646;SDS011;11490;42.726;23.268;2022-09-03T03:56:53;9.98;;;5.38;;
22646;SDS011;11490;42.726;23.268;2022-09-03T03:59:19;8.13;;;4.97;;
22646;SDS011;11490;42.726;23.268;2022-09-03T04:01:44;9.40;;;5.18;;
22646;SDS011;11490;42.726;23.268;2022-09-03T04:04:09;9.35;;;5.28;;
22646;SDS011;11490;42.726;23.268;2022-09-03T04:06:35;8.75;;;4.55;;
22646;SDS011;11490;42.726;23.268;2022-09-03T04:09:00;8.65;;;4.60;;
22646;SDS011;11490;42.726;23.268;2022-09-03T04:11:26;10.23;;;4.70;;
22646;SDS011;11490;42.726;23.268;2022-09-03T04:13:51;6.65;;;4.15;;
22646;SDS011;11490;42.726;23.268;2022-09-03T04:16:18;7.38;;;4.25;;
22646;SDS011;11490;42.726;23.268;2022-09-03T04:18:45;10.43;;;5.82;;
22646;SDS011;11490;42.726;23.268;2022-09-03T04:21:14;10.07;;;5.13;;
22646;SDS011;11490;42.726;23.268;2022-09-03T04:23:44;8.30;;;4.47;;
22646;SDS011;11490;42.726;23.268;2022-09-03T04:26:11;7.57;;;4.50;;
22646;SDS011;11490;42.726;23.268;2022-09-03T04:28:39;9.07;;;4.45;;
22646;SDS011;11490;42.726;23.268;2022-09-03T04:31:08;7.35;;;4.40;;
22646;SDS011;11490;42.726;23.268;2022-09-03T04:33:35;9.18;;;5.13;;
22646;SDS011;11490;42.726;23.268;2022-09-03T04:36:05;8.60;;;4.80;;
22646;SDS011;11490;42.726;23.268;2022-09-03T04:38:36;7.40;;;4.90;;
22646;SDS011;11490;42.726;23.268;2022-09-03T04:41:04;7.72;;;5.22;;
22646;SDS011;11490;42.726;23.268;2022-09-03T04:43:30;8.00;;;5.15;;
22646;SDS011;11490;42.726;23.268;2022-09-03T04:45:57;7.80;;;5.47;;
22646;SDS011;11490;42.726;23.268;2022-09-03T04:48:24;9.25;;;5.38;;
22646;SDS011;11490;42.726;23.268;2022-09-03T04:50:50;11.10;;;5.00;;
22646;SDS011;11490;42.726;23.268;2022-09-03T04:53:15;6.45;;;4.75;;
22646;SDS011;11490;42.726;23.268;2022-09-03T04:55:40;11.15;;;5.30;;
22646;SDS011;11490;42.726;23.268;2022-09-03T04:58:06;8.77;;;4.80;;
22646;SDS011;11490;42.726;23.268;2022-09-03T05:00:31;9.10;;;5.05;;
22646;SDS011;11490;42.726;23.268;2022-09-03T05:03:00;7.75;;;5.22;;
22646;SDS011;11490;42.726;23.268;2022-09-03T05:05:26;8.38;;;5.15;;
22646;SDS011;11490;42.726;23.268;2022-09-03T05:07:51;7.18;;;4.88;;
22646;SDS011;11490;42.726;23.268;2022-09-03T05:10:17;9.43;;;5.55;;
22646;SDS011;11490;42.726;23.268;2022-09-03T05:12:46;7.30;;;5.15;;
22646;SDS011;11490;42.726;23.268;2022-09-03T05:15:13;10.05;;;4.20;;
22646;SDS011;11490;42.726;23.268;2022-09-03T05:17:39;9.02;;;4.68;;
22646;SDS011;11490;42.726;23.268;2022-09-03T05:20:04;9.57;;;5.57;;
22646;SDS011;11490;42.726;23.268;2022-09-03T05:22:34;9.23;;;5.38;;
22646;SDS011;11490;42.726;23.268;2022-09-03T05:24:59;6.03;;;4.10;;
22646;SDS011;11490;42.726;23.268;2022-09-03T05:27:25;8.13;;;4.85;;
22646;SDS011;11490;42.726;23.268;2022-09-03T05:29:50;6.72;;;4.30;;
22646;SDS011;11490;42.726;23.268;2022-09-03T05:32:15;9.52;;;4.68;;
22646;SDS011;11490;42.726;23.268;2022-09-03T05:34:41;9.15;;;4.47;;
22646;SDS011;11490;42.726;23.268;2022-09-03T05:37:09;5.78;;;3.85;;
22646;SDS011;11490;42.726;23.268;2022-09-03T05:39:36;6.13;;;4.35;;
22646;SDS011;11490;42.726;23.268;2022-09-03T05:42:02;8.07;;;4.90;;
22646;SDS011;11490;42.726;23.268;2022-09-03T05:44:27;8.25;;;4.63;;
22646;SDS011;11490;42.726;23.268;2022-09-03T05:46:53;6.55;;;4.30;;
22646;SDS011;11490;42.726;23.268;2022-09-03T05:49:18;9.13;;;4.70;;
22646;SDS011;11490;42.726;23.268;2022-09-03T05:51:44;7.70;;;4.35;;
22646;SDS011;11490;42.726;23.268;2022-09-03T05:54:11;7.32;;;4.53;;
22646;SDS011;11490;42.726;23.268;2022-09-03T05:56:42;10.10;;;4.55;;
22646;SDS011;11490;42.726;23.268;2022-09-03T06:02:07;6.85;;;4.43;;
22646;SDS011;11490;42.726;23.268;2022-09-03T06:05:01;6.97;;;4.55;;
22646;SDS011;11490;42.726;23.268;2022-09-03T06:08:08;12.30;;;4.28;;
22646;SDS011;11490;42.726;23.268;2022-09-03T06:10:42;7.70;;;4.43;;
22646;SDS011;11490;42.726;23.268;2022-09-03T06:13:22;6.82;;;3.83;;
22646;SDS011;11490;42.726;23.268;2022-09-03T06:15:59;7.35;;;4.30;;
22646;SDS011;11490;42.726;23.268;2022-09-03T06:18:26;10.48;;;5.40;;
22646;SDS011;11490;42.726;23.268;2022-09-03T06:21:02;6.45;;;4.38;;
22646;SDS011;11490;42.726;23.268;2022-09-03T06:23:30;8.07;;;4.05;;
22646;SDS011;11490;42.726;23.268;2022-09-03T06:26:00;6.47;;;4.07;;
22646;SDS011;11490;42.726;23.268;2022-09-03T06:28:27;5.45;;;3.90;;
22646;SDS011;11490;42.726;23.268;2022-09-03T06:30:52;6.82;;;4.30;;
22646;SDS011;11490;42.726;23.268;2022-09-03T06:33:21;7.75;;;4.13;;
22646;SDS011;11490;42.726;23.268;2022-09-03T06:35:51;5.90;;;4.07;;
22646;SDS011;11490;42.726;23.268;2022-09-03T06:38:20;6.57;;;3.80;;
22646;SDS011;11490;42.726;23.268;2022-09-03T06:40:50;7.95;;;4.63;;
22646;SDS011;11490;42.726;23.268;2022-09-03T06:43:16;7.55;;;3.92;;
22646;SDS011;11490;42.726;23.268;2022-09-03T06:45:42;7.32;;;4.38;;
22646;SDS011;11490;42.726;23.268;2022-09-03T06:48:07;7.93;;;4.43;;
22646;SDS011;11490;42.726;23.268;2022-09-03T06:50:32;7.60;;;4.45;;
22646;SDS011;11490;42.726;23.268;2022-09-03T06:52:58;8.52;;;4.45;;
22646;SDS011;11490;42.726;23.268;2022-09-03T06:55:23;7.30;;;4.50;;
22646;SDS011;11490;42.726;23.268;2022-09-03T06:57:49;9.07;;;4.32;;
22646;SDS011;11490;42.726;23.268;2022-09-03T07:00:18;7.25;;;4.50;;
22646;SDS011;11490;42.726;23.268;2022-09-03T07:02:43;7.88;;;5.05;;
22646;SDS011;11490;42.726;23.268;2022-09-03T07:05:09;6.90;;;4.28;;
22646;SDS011;11490;42.726;23.268;2022-09-03T07:07:34;7.85;;;4.85;;
22646;SDS011;11490;42.726;23.268;2022-09-03T07:09:59;7.10;;;4.22;;
22646;SDS011;11490;42.726;23.268;2022-09-03T07:12:25;5.90;;;3.88;;
22646;SDS011;11490;42.726;23.268;2022-09-03T07:14:51;6.85;;;4.15;;
22646;SDS011;11490;42.726;23.268;2022-09-03T07:17:16;7.57;;;4.35;;
22646;SDS011;11490;42.726;23.268;2022-09-03T07:19:42;5.30;;;3.72;;
22646;SDS011;11490;42.726;23.268;2022-09-03T07:22:07;7.03;;;4.50;;
22646;SDS011;11490;42.726;23.268;2022-09-03T07:24:33;6.72;;;4.55;;
22646;SDS011;11490;42.726;23.268;2022-09-03T07:26:59;5.55;;;3.40;;
22646;SDS011;11490;42.726;23.268;2022-09-03T07:29:25;6.05;;;4.30;;
22646;SDS011;11490;42.726;23.268;2022-09-03T07:31:51;7.30;;;4.80;;
22646;SDS011;11490;42.726;23.268;2022-09-03T07:34:16;7.18;;;4.47;;
22646;SDS011;11490;42.726;23.268;2022-09-03T07:36:43;6.20;;;3.83;;
22646;SDS011;11490;42.726;23.268;2022-09-03T07:39:15;6.43;;;3.92;;
22646;SDS011;11490;42.726;23.268;2022-09-03T07:41:42;7.15;;;4.75;;
22646;SDS011;11490;42.726;23.268;2022-09-03T07:44:10;6.13;;;3.60;;
22646;SDS011;11490;42.726;23.268;2022-09-03T07:46:40;7.43;;;3.92;;
22646;SDS011;11490;42.726;23.268;2022-09-03T07:49:05;7.03;;;4.28;;
22646;SDS011;11490;42.726;23.268;2022-09-03T07:51:37;5.97;;;3.50;;
22646;SDS011;11490;42.726;23.268;2022-09-03T07:54:07;5.97;;;3.78;;
22646;SDS011;11490;42.726;23.268;2022-09-03T07:56:35;5.95;;;3.80;;
22646;SDS011;11490;42.726;23.268;2022-09-03T07:59:02;6.53;;;3.88;;
22646;SDS011;11490;42.726;23.268;2022-09-03T08:01:28;5.97;;;3.65;;
22646;SDS011;11490;42.726;23.268;2022-09-03T08:03:58;6.30;;;3.85;;
22646;SDS011;11490;42.726;23.268;2022-09-03T08:06:25;6.10;;;3.88;;
22646;SDS011;11490;42.726;23.268;2022-09-03T08:08:55;4.80;;;3.60;;
22646;SDS011;11490;42.726;23.268;2022-09-03T08:11:24;5.78;;;3.50;;
22646;SDS011;11490;42.726;23.268;2022-09-03T08:13:54;6.72;;;3.65;;
22646;SDS011;11490;42.726;23.268;2022-09-03T08:16:27;5.70;;;3.78;;
22646;SDS011;11490;42.726;23.268;2022-09-03T08:18:56;5.60;;;3.95;;
22646;SDS011;11490;42.726;23.268;2022-09-03T08:21:22;7.07;;;4.53;;
22646;SDS011;11490;42.726;23.268;2022-09-03T08:23:48;6.97;;;4.03;;
22646;SDS011;11490;42.726;23.268;2022-09-03T08:26:16;5.30;;;3.53;;
22646;SDS011;11490;42.726;23.268;2022-09-03T08:28:42;5.43;;;3.40;;
22646;SDS011;11490;42.726;23.268;2022-09-03T08:31:09;6.13;;;3.63;;
22646;SDS011;11490;42.726;23.268;2022-09-03T08:33:44;9.68;;;3.67;;
22646;SDS011;11490;42.726;23.268;2022-09-03T08:36:13;5.63;;;3.30;;
22646;SDS011;11490;42.726;23.268;2022-09-03T08:38:40;5.50;;;3.95;;
22646;SDS011;11490;42.726;23.268;2022-09-03T08:41:11;5.65;;;3.75;;
22646;SDS011;11490;42.726;23.268;2022-09-03T08:46:13;5.93;;;3.92;;
22646;SDS011;11490;42.726;23.268;2022-09-03T08:48:46;7.93;;;4.13;;
22646;SDS011;11490;42.726;23.268;2022-09-03T08:51:17;6.30;;;3.55;;
22646;SDS011;11490;42.726;23.268;2022-09-03T08:53:48;5.18;;;3.25;;
22646;SDS011;11490;42.726;23.268;2022-09-03T08:56:29;6.05;;;4.20;;
22646;SDS011;11490;42.726;23.268;2022-09-03T08:58:55;5.93;;;3.70;;
22646;SDS011;11490;42.726;23.268;2022-09-03T09:25:11;5.25;;;3.08;;
22646;SDS011;11490;42.726;23.268;2022-09-03T09:27:44;3.95;;;2.40;;
22646;SDS011;11490;42.726;23.268;2022-09-03T09:30:15;3.83;;;2.65;;
22646;SDS011;11490;42.726;23.268;2022-09-03T09:32:42;5.10;;;3.03;;
22646;SDS011;11490;42.726;23.268;2022-09-03T09:35:08;6.60;;;3.30;;
22646;SDS011;11490;42.726;23.268;2022-09-03T09:37:44;5.38;;;3.13;;
22646;SDS011;11490;42.726;23.268;2022-09-03T09:40:22;4.97;;;3.10;;
22646;SDS011;11490;42.726;23.268;2022-09-03T09:45:47;5.10;;;3.05;;
22646;SDS011;11490;42.726;23.268;2022-09-03T09:48:16;5.78;;;4.05;;
22646;SDS011;11490;42.726;23.268;2022-09-03T09:53:46;4.50;;;2.90;;
22646;SDS011;11490;42.726;23.268;2022-09-03T09:56:28;4.82;;;3.33;;
22646;SDS011;11490;42.726;23.268;2022-09-03T09:59:03;5.15;;;3.53;;
22646;SDS011;11490;42.726;23.268;2022-09-03T10:01:33;5.18;;;3.55;;
22646;SDS011;11490;42.726;23.268;2022-09-03T10:04:23;5.03;;;2.47;;
22646;SDS011;11490;42.726;23.268;2022-09-03T10:07:21;5.47;;;3.40;;
22646;SDS011;11490;42.726;23.268;2022-09-03T10:12:48;4.68;;;3.08;;
22646;SDS011;11490;42.726;23.268;2022-09-03T10:18:41;6.28;;;3.53;;
22646;SDS011;11490;42.726;23.268;2022-09-03T10:21:11;5.78;;;3.40;;
22646;SDS011;11490;42.726;23.268;2022-09-03T10:23:49;5.03;;;3.70;;
22646;SDS011;11490;42.726;23.268;2022-09-03T10:26:21;4.55;;;3.00;;
22646;SDS011;11490;42.726;23.268;2022-09-03T10:28:55;4.65;;;2.97;;
22646;SDS011;11490;42.726;23.268;2022-09-03T10:34:09;5.25;;;3.17;;
22646;SDS011;11490;42.726;23.268;2022-09-03T10:50:21;4.68;;;2.67;;
22646;SDS011;11490;42.726;23.268;2022-09-03T10:53:27;4.28;;;2.97;;
22646;SDS011;11490;42.726;23.268;2022-09-03T11:04:24;4.78;;;3.22;;
22646;SDS011;11490;42.726;23.268;2022-09-03T11:07:01;5.45;;;3.10;;
22646;SDS011;11490;42.726;23.268;2022-09-03T11:11:58;8.23;;;3.17;;
22646;SDS011;11490;42.726;23.268;2022-09-03T11:14:45;5.03;;;2.95;;
22646;SDS011;11490;42.726;23.268;2022-09-03T11:17:22;7.03;;;3.10;;
22646;SDS011;11490;42.726;23.268;2022-09-03T11:19:53;5.60;;;3.15;;
22646;SDS011;11490;42.726;23.268;2022-09-03T11:22:24;4.05;;;2.40;;
22646;SDS011;11490;42.726;23.268;2022-09-03T11:24:53;5.60;;;3.35;;
22646;SDS011;11490;42.726;23.268;2022-09-03T11:30:09;4.90;;;3.22;;
22646;SDS011;11490;42.726;23.268;2022-09-03T11:32:51;4.82;;;3.20;;
22646;SDS011;11490;42.726;23.268;2022-09-03T11:35:25;4.70;;;2.97;;
22646;SDS011;11490;42.726;23.268;2022-09-03T11:37:56;4.80;;;2.88;;
22646;SDS011;11490;42.726;23.268;2022-09-03T11:40:28;4.28;;;3.05;;
22646;SDS011;11490;42.726;23.268;2022-09-03T11:43:04;6.63;;;3.65;;
22646;SDS011;11490;42.726;23.268;2022-09-03T11:47:57;6.28;;;4.00;;
22646;SDS011;11490;42.726;23.268;2022-09-03T11:50:27;6.22;;;3.58;;
22646;SDS011;11490;42.726;23.268;2022-09-03T11:58:39;6.32;;;3.83;;
22646;SDS011;11490;42.726;23.268;2022-09-03T12:01:11;5.75;;;3.83;;
22646;SDS011;11490;42.726;23.268;2022-09-03T12:03:49;6.80;;;3.85;;
22646;SDS011;11490;42.726;23.268;2022-09-03T12:20:38;4.93;;;3.10;;
22646;SDS011;11490;42.726;23.268;2022-09-03T12:23:05;5.72;;;3.40;;
22646;SDS011;11490;42.726;23.268;2022-09-03T12:25:31;5.20;;;3.30;;
22646;SDS011;11490;42.726;23.268;2022-09-03T12:27:57;6.60;;;3.88;;
22646;SDS011;11490;42.726;23.268;2022-09-03T12:30:28;6.15;;;3.42;;
22646;SDS011;11490;42.726;23.268;2022-09-03T12:33:02;5.25;;;3.35;;
22646;SDS011;11490;42.726;23.268;2022-09-03T12:35:30;3.70;;;2.88;;
22646;SDS011;11490;42.726;23.268;2022-09-03T12:37:56;2.88;;;2.25;;
22646;SDS011;11490;42.726;23.268;2022-09-03T12:40:25;4.25;;;2.50;;
22646;SDS011;11490;42.726;23.268;2022-09-03T12:42:53;3.97;;;2.53;;
22646;SDS011;11490;42.726;23.268;2022-09-03T12:45:23;5.47;;;3.75;;
22646;SDS011;11490;42.726;23.268;2022-09-03T12:47:50;4.45;;;2.40;;
22646;SDS011;11490;42.726;23.268;2022-09-03T12:55:27;4.40;;;2.95;;
22646;SDS011;11490;42.726;23.268;2022-09-03T13:00:36;4.32;;;2.65;;
22646;SDS011;11490;42.726;23.268;2022-09-03T13:03:07;3.72;;;2.65;;
22646;SDS011;11490;42.726;23.268;2022-09-03T13:05:42;3.22;;;2.10;;
22646;SDS011;11490;42.726;23.268;2022-09-03T13:08:17;3.13;;;2.13;;
22646;SDS011;11490;42.726;23.268;2022-09-03T13:10:52;3.47;;;2.13;;
22646;SDS011;11490;42.726;23.268;2022-09-03T13:13:28;3.88;;;2.30;;
22646;SDS011;11490;42.726;23.268;2022-09-03T13:19:02;3.88;;;1.80;;
22646;SDS011;11490;42.726;23.268;2022-09-03T13:24:22;3.63;;;2.45;;
22646;SDS011;11490;42.726;23.268;2022-09-03T13:32:22;4.28;;;2.20;;
22646;SDS011;11490;42.726;23.268;2022-09-03T13:34:53;6.22;;;3.15;;
22646;SDS011;11490;42.726;23.268;2022-09-03T13:37:25;3.78;;;2.22;;
22646;SDS011;11490;42.726;23.268;2022-09-03T13:39:57;3.08;;;1.80;;
22646;SDS011;11490;42.726;23.268;2022-09-03T13:42:37;3.42;;;2.10;;
22646;SDS011;11490;42.726;23.268;2022-09-03T13:51:10;4.10;;;2.38;;
22646;SDS011;11490;42.726;23.268;2022-09-03T13:59:48;3.65;;;2.13;;
22646;SDS011;11490;42.726;23.268;2022-09-03T14:08:03;4.28;;;2.95;;
22646;SDS011;11490;42.726;23.268;2022-09-03T14:16:43;3.35;;;2.08;;
22646;SDS011;11490;42.726;23.268;2022-09-03T14:19:21;4.93;;;2.50;;
22646;SDS011;11490;42.726;23.268;2022-09-03T14:24:52;6.57;;;2.20;;
22646;SDS011;11490;42.726;23.268;2022-09-03T14:27:26;2.78;;;1.73;;
22646;SDS011;11490;42.726;23.268;2022-09-03T14:30:05;4.15;;;2.13;;
22646;SDS011;11490;42.726;23.268;2022-09-03T14:32:44;3.78;;;2.28;;
22646;SDS011;11490;42.726;23.268;2022-09-03T14:40:53;4.50;;;1.83;;
22646;SDS011;11490;42.726;23.268;2022-09-03T14:49:08;2.00;;;1.60;;
22646;SDS011;11490;42.726;23.268;2022-09-03T15:00:35;4.25;;;1.98;;
22646;SDS011;11490;42.726;23.268;2022-09-03T15:05:48;4.00;;;2.25;;
22646;SDS011;11490;42.726;23.268;2022-09-03T15:08:32;3.05;;;1.88;;
22646;SDS011;11490;42.726;23.268;2022-09-03T15:11:19;2.70;;;1.63;;
22646;SDS011;11490;42.726;23.268;2022-09-03T15:13:52;2.92;;;2.10;;
22646;SDS011;11490;42.726;23.268;2022-09-03T15:19:33;3.20;;;1.95;;
22646;SDS011;11490;42.726;23.268;2022-09-03T15:28:00;4.95;;;2.35;;
22646;SDS011;11490;42.726;23.268;2022-09-03T15:30:38;4.70;;;2.72;;
22646;SDS011;11490;42.726;23.268;2022-09-03T15:44:01;4.57;;;2.40;;
22646;SDS011;11490;42.726;23.268;2022-09-03T15:52:25;2.95;;;1.98;;
22646;SDS011;11490;42.726;23.268;2022-09-03T15:57:34;4.55;;;2.63;;
22646;SDS011;11490;42.726;23.268;2022-09-03T16:00:09;4.72;;;2.83;;
22646;SDS011;11490;42.726;23.268;2022-09-03T16:05:18;5.05;;;2.65;;
22646;SDS011;11490;42.726;23.268;2022-09-03T16:07:57;4.35;;;2.97;;
22646;SDS011;11490;42.726;23.268;2022-09-03T16:13:51;4.65;;;2.50;;
22646;SDS011;11490;42.726;23.268;2022-09-03T16:22:27;4.20;;;2.70;;
22646;SDS011;11490;42.726;23.268;2022-09-03T16:25:12;5.65;;;3.67;;
22646;SDS011;11490;42.726;23.268;2022-09-03T16:27:50;6.18;;;3.08;;
22646;SDS011;11490;42.726;23.268;2022-09-03T16:30:27;4.95;;;2.97;;
22646;SDS011;11490;42.726;23.268;2022-09-03T16:33:02;57.38;;;35.97;;
22646;SDS011;11490;42.726;23.268;2022-09-03T16:36:20;54.35;;;37.15;;
22646;SDS011;11490;42.726;23.268;2022-09-03T16:44:01;29.00;;;19.10;;
22646;SDS011;11490;42.726;23.268;2022-09-03T16:46:39;26.92;;;18.50;;
22646;SDS011;11490;42.726;23.268;2022-09-03T16:52:06;12.45;;;7.38;;
22646;SDS011;11490;42.726;23.268;2022-09-03T16:54:54;6.00;;;3.92;;
22646;SDS011;11490;42.726;23.268;2022-09-03T17:03:42;36.03;;;15.95;;
22646;SDS011;11490;42.726;23.268;2022-09-03T17:08:54;22.05;;;11.05;;
22646;SDS011;11490;42.726;23.268;2022-09-03T17:11:40;12.93;;;7.57;;
22646;SDS011;11490;42.726;23.268;2022-09-03T17:14:25;15.13;;;8.35;;
22646;SDS011;11490;42.726;23.268;2022-09-03T17:17:01;8.55;;;5.10;;
22646;SDS011;11490;42.726;23.268;2022-09-03T17:25:04;7.75;;;4.55;;
22646;SDS011;11490;42.726;23.268;2022-09-03T17:30:27;11.32;;;6.85;;
22646;SDS011;11490;42.726;23.268;2022-09-03T17:33:26;8.50;;;5.18;;
22646;SDS011;11490;42.726;23.268;2022-09-03T17:44:19;7.63;;;5.60;;
22646;SDS011;11490;42.726;23.268;2022-09-03T17:50:26;10.10;;;5.95;;
22646;SDS011;11490;42.726;23.268;2022-09-03T17:53:19;8.52;;;5.32;;
22646;SDS011;11490;42.726;23.268;2022-09-03T17:56:07;5.68;;;3.90;;
22646;SDS011;11490;42.726;23.268;2022-09-03T17:58:43;6.20;;;3.92;;
22646;SDS011;11490;42.726;23.268;2022-09-03T18:01:20;7.90;;;4.15;;
22646;SDS011;11490;42.726;23.268;2022-09-03T18:03:54;6.57;;;3.83;;
22646;SDS011;11490;42.726;23.268;2022-09-03T18:06:23;8.70;;;5.60;;
22646;SDS011;11490;42.726;23.268;2022-09-03T18:15:36;7.50;;;5.07;;
22646;SDS011;11490;42.726;23.268;2022-09-03T18:17:58;8.00;;;5.18;;
22646;SDS011;11490;42.726;23.268;2022-09-03T18:20:31;11.88;;;7.13;;
22646;SDS011;11490;42.726;23.268;2022-09-03T18:23:25;12.02;;;6.38;;
22646;SDS011;11490;42.726;23.268;2022-09-03T18:26:21;9.38;;;6.65;;
22646;SDS011;11490;42.726;23.268;2022-09-03T18:29:33;8.25;;;5.75;;
22646;SDS011;11490;42.726;23.268;2022-09-03T18:32:22;21.30;;;10.73;;
22646;SDS011;11490;42.726;23.268;2022-09-03T18:35:07;15.20;;;7.20;;
22646;SDS011;11490;42.726;23.268;2022-09-03T18:37:52;9.70;;;6.53;;
22646;SDS011;11490;42.726;23.268;2022-09-03T18:46:51;18.23;;;8.95;;
22646;SDS011;11490;42.726;23.268;2022-09-03T18:52:47;9.50;;;6.45;;
22646;SDS011;11490;42.726;23.268;2022-09-03T19:01:36;7.20;;;4.93;;
22646;SDS011;11490;42.726;23.268;2022-09-03T19:10:16;6.05;;;4.13;;
22646;SDS011;11490;42.726;23.268;2022-09-03T19:13:07;6.22;;;4.22;;
22646;SDS011;11490;42.726;23.268;2022-09-03T19:16:25;7.28;;;4.82;;
22646;SDS011;11490;42.726;23.268;2022-09-03T19:22:40;9.60;;;4.57;;
22646;SDS011;11490;42.726;23.268;2022-09-03T19:25:24;9.00;;;6.45;;
22646;SDS011;11490;42.726;23.268;2022-09-03T19:34:20;7.65;;;4.70;;
22646;SDS011;11490;42.726;23.268;2022-09-03T19:47:08;9.68;;;5.20;;
22646;SDS011;11490;42.726;23.268;2022-09-03T19:52:48;8.18;;;4.53;;
22646;SDS011;11490;42.726;23.268;2022-09-03T19:55:52;7.65;;;4.45;;
22646;SDS011;11490;42.726;23.268;2022-09-03T19:58:54;6.53;;;4.63;;
22646;SDS011;11490;42.726;23.268;2022-09-03T20:01:39;6.60;;;4.60;;
22646;SDS011;11490;42.726;23.268;2022-09-03T20:04:29;6.47;;;4.57;;
22646;SDS011;11490;42.726;23.268;2022-09-03T20:07:15;7.80;;;4.93;;
22646;SDS011;11490;42.726;23.268;2022-09-03T20:10:01;6.20;;;4.22;;
22646;SDS011;11490;42.726;23.268;2022-09-03T20:15:25;8.68;;;5.10;;
22646;SDS011;11490;42.726;23.268;2022-09-03T20:23:32;7.45;;;5.10;;
22646;SDS011;11490;42.726;23.268;2022-09-03T20:32:04;8.75;;;5.03;;
22646;SDS011;11490;42.726;23.268;2022-09-03T20:47:59;7.45;;;5.07;;
22646;SDS011;11490;42.726;23.268;2022-09-03T20:50:43;6.50;;;4.72;;
22646;SDS011;11490;42.726;23.268;2022-09-03T20:55:53;7.50;;;5.07;;
22646;SDS011;11490;42.726;23.268;2022-09-03T20:58:37;8.55;;;5.53;;
22646;SDS011;11490;42.726;23.268;2022-09-03T21:01:44;6.85;;;4.85;;
22646;SDS011;11490;42.726;23.268;2022-09-03T21:04:50;8.10;;;4.85;;
22646;SDS011;11490;42.726;23.268;2022-09-03T21:07:32;8.80;;;4.72;;
22646;SDS011;11490;42.726;23.268;2022-09-03T21:10:12;7.60;;;4.22;;
22646;SDS011;11490;42.726;23.268;2022-09-03T21:21:17;6.65;;;4.97;;